createdAt,value
2022-09-07T00:01:07.576Z,6.50
2022-09-07T00:03:35.891Z,5.43
2022-09-07T00:06:09.151Z,6.63
2022-09-07T00:08:38.111Z,5.43
2022-09-07T00:11:14.979Z,5.17
2022-09-07T00:13:43.655Z,5.00
2022-09-07T00:16:18.465Z,4.97
2022-09-07T00:18:46.722Z,5.13
2022-09-07T00:21:17.088Z,5.43
2022-09-07T00:23:44.868Z,5.63
2022-09-07T00:26:19.712Z,5.07
2022-09-07T00:28:47.412Z,4.87
2022-09-07T00:31:23.672Z,5.03
2022-09-07T00:33:52.856Z,4.23
2022-09-07T00:36:21.955Z,4.47
2022-09-07T00:38:49.709Z,4.77
2022-09-07T00:41:18.714Z,4.20
2022-09-07T00:43:49.591Z,4.50
2022-09-07T00:46:28.819Z,4.63
2022-09-07T00:49:01.734Z,4.47
2022-09-07T00:51:35.421Z,3.93
2022-09-07T00:54:10.846Z,4.87
2022-09-07T00:56:42.151Z,4.37
2022-09-07T00:59:10.943Z,4.60
2022-09-07T01:01:39.551Z,5.13
2022-09-07T01:04:07.888Z,4.53
2022-09-07T01:06:38.436Z,4.20
2022-09-07T01:09:11.241Z,5.37
2022-09-07T01:11:39.488Z,4.30
2022-09-07T01:14:10.265Z,4.47
2022-09-07T01:17:02.450Z,4.50
2022-09-07T01:19:55.853Z,5.00
2022-09-07T01:22:59.742Z,4.33
2022-09-07T01:25:51.653Z,5.33
2022-09-07T01:28:28.353Z,5.33
2022-09-07T01:31:08.052Z,4.60
2022-09-07T01:33:52.196Z,6.57
2022-09-07T01:36:34.696Z,5.73
2022-09-07T01:39:04.710Z,5.47
2022-09-07T01:41:51.548Z,5.50
2022-09-07T01:44:24.069Z,5.20
2022-09-07T01:47:13.313Z,4.50
2022-09-07T01:50:03.504Z,5.20
2022-09-07T01:52:58.995Z,5.07
2022-09-07T01:55:40.094Z,5.13
2022-09-07T01:58:13.949Z,4.43
2022-09-07T02:00:49.291Z,4.37
2022-09-07T02:03:28.895Z,4.73
2022-09-07T02:06:06.007Z,5.17
2022-09-07T02:08:42.539Z,6.33
2022-09-07T02:11:24.843Z,5.80
2022-09-07T02:13:56.826Z,9.07
2022-09-07T02:16:29.908Z,10.03
2022-09-07T02:19:04.460Z,9.97
2022-09-07T02:21:36.776Z,7.20
2022-09-07T02:24:26.560Z,6.60
2022-09-07T02:26:56.190Z,7.43
2022-09-07T02:29:25.220Z,7.03
2022-09-07T02:31:54.521Z,7.57
2022-09-07T02:34:22.512Z,8.17
2022-09-07T02:36:52.883Z,5.37
2022-09-07T02:39:20.827Z,5.33
2022-09-07T02:41:48.601Z,5.53
2022-09-07T02:44:16.731Z,5.43
2022-09-07T02:46:50.360Z,4.57
2022-09-07T02:49:33.614Z,5.33
2022-09-07T02:52:19.127Z,5.90
2022-09-07T02:55:09.557Z,5.10
2022-09-07T02:58:01.236Z,5.47
2022-09-07T03:00:33.798Z,5.60
2022-09-07T03:03:37.878Z,5.33
2022-09-07T03:06:13.315Z,6.53
2022-09-07T03:08:47.259Z,8.37
2022-09-07T03:11:15.405Z,7.00
2022-09-07T03:13:42.902Z,6.53
2022-09-07T03:16:16.846Z,5.57
2022-09-07T03:18:45.609Z,5.47
2022-09-07T03:21:13.053Z,6.03
2022-09-07T03:23:40.848Z,5.97
2022-09-07T03:26:22.989Z,5.47
2022-09-07T03:28:50.697Z,5.13
2022-09-07T03:31:18.732Z,5.27
2022-09-07T03:33:46.209Z,5.77
2022-09-07T03:36:14.063Z,5.53
2022-09-07T03:38:41.667Z,7.00
2022-09-07T03:41:10.092Z,7.00
2022-09-07T03:43:37.464Z,7.13
2022-09-07T03:46:06.853Z,13.93
2022-09-07T03:48:35.435Z,13.73
2022-09-07T03:51:10.854Z,27.17
2022-09-07T03:53:42.418Z,18.73
2022-09-07T03:56:12.855Z,13.90
2022-09-07T03:58:40.978Z,11.57
2022-09-07T04:01:10.992Z,9.93
2022-09-07T04:03:39.723Z,10.23
2022-09-07T04:06:07.584Z,11.17
2022-09-07T04:08:36.807Z,9.27
2022-09-07T04:11:07.103Z,9.17
2022-09-07T04:13:36.440Z,7.77
2022-09-07T04:16:14.530Z,7.17
2022-09-07T04:18:42.628Z,7.00
2022-09-07T04:21:10.537Z,7.07
2022-09-07T04:23:42.855Z,7.17
2022-09-07T04:26:22.784Z,6.67
2022-09-07T04:28:51.236Z,6.67
2022-09-07T04:31:20.023Z,7.27
2022-09-07T04:33:49.160Z,6.77
2022-09-07T04:36:18.378Z,6.87
2022-09-07T04:38:46.692Z,6.33
2022-09-07T04:41:17.411Z,6.30
2022-09-07T04:43:46.437Z,6.97
2022-09-07T04:46:17.238Z,7.30
2022-09-07T04:48:44.781Z,7.40
2022-09-07T04:51:12.924Z,7.20
2022-09-07T04:53:41.714Z,7.30
2022-09-07T04:56:10.367Z,7.07
2022-09-07T04:58:39.678Z,6.43
2022-09-07T05:01:08.025Z,7.10
2022-09-07T05:03:38.129Z,7.50
2022-09-07T05:06:07.419Z,6.03
2022-09-07T05:08:47.016Z,6.50
2022-09-07T05:11:15.631Z,7.23
2022-09-07T05:13:43.293Z,7.13
2022-09-07T05:16:20.594Z,8.13
2022-09-07T05:18:52.842Z,8.20
2022-09-07T05:21:23.061Z,7.70
2022-09-07T05:23:52.429Z,8.70
2022-09-07T05:26:21.501Z,9.63
2022-09-07T05:28:49.417Z,9.63
2022-09-07T05:31:20.041Z,7.33
2022-09-07T05:36:40.613Z,6.87
2022-09-07T05:39:08.880Z,7.87
2022-09-07T05:41:36.751Z,7.43
2022-09-07T05:46:53.009Z,7.13
2022-09-07T05:49:21.258Z,7.80
2022-09-07T05:51:49.022Z,7.27
2022-09-07T05:54:16.791Z,7.43
2022-09-07T05:56:44.802Z,8.07
2022-09-07T05:59:12.557Z,8.07
2022-09-07T06:01:40.345Z,7.30
2022-09-07T06:04:08.575Z,7.10
2022-09-07T06:06:40.964Z,6.00
2022-09-07T06:09:11.580Z,5.60
2022-09-07T06:11:39.434Z,5.63
2022-09-07T06:14:07.307Z,4.90
2022-09-07T06:16:35.503Z,5.40
2022-09-07T06:19:07.926Z,5.73
2022-09-07T06:21:39.000Z,4.83
2022-09-07T06:24:06.778Z,4.83
2022-09-07T06:26:34.401Z,4.60
2022-09-07T06:29:02.557Z,4.90
2022-09-07T06:31:30.221Z,4.45
2022-09-07T06:33:58.989Z,5.07
2022-09-07T06:36:28.081Z,4.72
2022-09-07T06:39:02.000Z,4.53
2022-09-07T06:44:21.222Z,4.00
2022-09-07T06:47:04.875Z,4.20
2022-09-07T06:49:32.566Z,3.80
2022-09-07T06:52:00.084Z,3.85
2022-09-07T06:57:15.776Z,3.97
2022-09-07T06:59:43.266Z,4.07
2022-09-07T07:02:12.721Z,3.78
2022-09-07T07:04:41.363Z,2.90
2022-09-07T07:07:14.128Z,2.78
2022-09-07T07:09:42.851Z,3.55
2022-09-07T07:12:11.524Z,3.78
2022-09-07T07:14:44.000Z,3.25
2022-09-07T07:17:13.894Z,2.85
2022-09-07T07:19:41.440Z,2.88
2022-09-07T07:22:45.579Z,3.55
2022-09-07T07:24:56.983Z,3.15
2022-09-07T07:27:24.593Z,3.20
2022-09-07T07:29:52.860Z,2.58
2022-09-07T07:32:22.115Z,2.55
2022-09-07T07:34:49.519Z,2.63
2022-09-07T07:37:17.398Z,2.60
2022-09-07T07:42:34.160Z,2.50
2022-09-07T07:47:51.483Z,2.40
2022-09-07T07:50:34.927Z,2.80
2022-09-07T07:55:51.712Z,2.20
2022-09-07T07:58:19.954Z,2.13
2022-09-07T08:00:54.888Z,2.10
2022-09-07T08:03:24.270Z,1.85
2022-09-07T08:05:52.353Z,2.00
2022-09-07T08:08:19.913Z,1.90
2022-09-07T08:10:48.066Z,2.17
2022-09-07T08:13:16.805Z,2.25
2022-09-07T08:15:47.244Z,2.08
2022-09-07T08:18:17.327Z,2.03
2022-09-07T08:20:44.790Z,1.70
2022-09-07T08:23:12.279Z,1.83
2022-09-07T08:25:48.739Z,2.17
2022-09-07T08:28:15.985Z,1.60
2022-09-07T08:30:44.035Z,1.25
2022-09-07T08:33:11.360Z,1.65
2022-09-07T08:35:38.790Z,1.50
2022-09-07T08:38:06.656Z,1.33
2022-09-07T08:40:37.323Z,1.10
2022-09-07T08:43:40.279Z,1.95
2022-09-07T08:46:20.305Z,1.55
2022-09-07T08:48:49.281Z,1.55
2022-09-07T08:51:47.733Z,1.98
2022-09-07T08:54:19.312Z,1.25
2022-09-07T08:59:49.129Z,1.88
2022-09-07T09:02:38.500Z,2.88
2022-09-07T09:05:17.168Z,1.45
2022-09-07T09:07:54.609Z,1.25
2022-09-07T09:11:03.571Z,1.70
2022-09-07T09:14:06.196Z,1.10
2022-09-07T09:16:45.880Z,1.48
2022-09-07T09:19:42.303Z,0.90
2022-09-07T09:22:14.777Z,0.90
2022-09-07T09:24:51.977Z,1.10
2022-09-07T09:27:19.314Z,1.05
2022-09-07T09:29:46.909Z,1.05
2022-09-07T09:32:43.114Z,0.88
2022-09-07T09:35:32.748Z,1.08
2022-09-07T09:38:00.438Z,0.70
2022-09-07T09:40:32.504Z,1.40
2022-09-07T09:43:07.970Z,1.10
2022-09-07T09:48:34.118Z,0.75
2022-09-07T09:54:14.878Z,1.00
2022-09-07T09:56:44.258Z,1.00
2022-09-07T10:05:42.709Z,0.73
2022-09-07T10:08:29.159Z,1.10
2022-09-07T10:11:07.373Z,0.80
2022-09-07T10:13:36.360Z,2.25
2022-09-07T10:16:06.761Z,0.95
2022-09-07T10:18:54.634Z,1.25
2022-09-07T10:21:29.641Z,0.90
2022-09-07T10:24:13.342Z,0.70
2022-09-07T10:26:44.628Z,0.70
2022-09-07T10:29:17.379Z,1.00
2022-09-07T10:32:04.698Z,1.10
2022-09-07T10:35:02.284Z,0.70
2022-09-07T10:37:54.294Z,0.65
2022-09-07T10:40:33.540Z,0.85
2022-09-07T10:43:23.291Z,0.90
2022-09-07T10:46:09.577Z,0.98
2022-09-07T10:48:51.792Z,0.45
2022-09-07T10:51:25.285Z,0.80
2022-09-07T10:57:13.251Z,0.70
2022-09-07T11:02:40.002Z,0.68
2022-09-07T11:05:38.425Z,0.75
2022-09-07T11:08:14.972Z,0.80
2022-09-07T11:11:01.185Z,0.52
2022-09-07T11:13:44.773Z,0.45
2022-09-07T11:16:51.016Z,0.90
2022-09-07T11:19:40.340Z,0.68
2022-09-07T11:22:29.762Z,1.00
2022-09-07T11:25:31.467Z,0.98
2022-09-07T11:28:21.614Z,0.85
2022-09-07T11:31:00.181Z,1.00
2022-09-07T11:33:34.637Z,0.50
2022-09-07T11:36:12.419Z,0.90
2022-09-07T11:38:47.508Z,0.80
2022-09-07T11:41:18.145Z,0.77
2022-09-07T11:44:04.467Z,0.82
2022-09-07T11:46:45.966Z,1.35
2022-09-07T11:49:21.075Z,1.10
2022-09-07T11:51:54.067Z,0.70
2022-09-07T11:54:35.897Z,0.70
2022-09-07T11:57:11.341Z,0.90
2022-09-07T11:59:58.680Z,1.05
2022-09-07T12:03:00.356Z,0.73
2022-09-07T12:05:55.225Z,0.57
2022-09-07T12:08:47.428Z,0.73
2022-09-07T12:11:36.182Z,0.60
2022-09-07T12:14:21.474Z,0.73
2022-09-07T12:17:08.520Z,0.63
2022-09-07T12:19:36.294Z,0.70
2022-09-07T12:22:05.770Z,0.90
2022-09-07T12:24:41.485Z,0.60
2022-09-07T12:27:19.910Z,0.82
2022-09-07T12:29:48.986Z,0.88
2022-09-07T12:32:56.155Z,0.80
2022-09-07T12:35:39.277Z,1.58
2022-09-07T12:38:18.933Z,0.80
2022-09-07T12:41:03.149Z,0.70
2022-09-07T12:43:54.373Z,0.80
2022-09-07T12:46:34.756Z,0.90
2022-09-07T12:49:21.837Z,0.85
2022-09-07T12:52:33.802Z,0.90
2022-09-07T12:55:28.580Z,0.80
2022-09-07T12:57:59.985Z,0.80
2022-09-07T13:00:55.173Z,0.85
2022-09-07T13:03:51.370Z,0.85
2022-09-07T13:09:38.077Z,0.80
2022-09-07T13:15:44.825Z,1.15
2022-09-07T13:18:35.163Z,1.00
2022-09-07T13:21:08.829Z,0.80
2022-09-07T13:23:37.915Z,0.75
2022-09-07T13:26:09.359Z,0.60
2022-09-07T13:28:42.092Z,0.80
2022-09-07T13:31:29.338Z,0.80
2022-09-07T13:33:57.724Z,1.00
2022-09-07T13:36:39.045Z,0.90
2022-09-07T13:39:12.228Z,0.75
2022-09-07T13:41:54.787Z,0.65
2022-09-07T13:44:26.845Z,1.33
2022-09-07T13:47:21.069Z,1.05
2022-09-07T13:49:58.420Z,0.70
2022-09-07T13:52:42.293Z,0.80
2022-09-07T13:55:27.708Z,1.00
2022-09-07T13:58:07.117Z,1.30
2022-09-07T14:00:35.576Z,0.90
2022-09-07T14:03:07.290Z,0.70
2022-09-07T14:05:36.375Z,0.95
2022-09-07T14:08:04.756Z,0.90
2022-09-07T14:10:34.196Z,1.15
2022-09-07T14:13:12.546Z,1.02
2022-09-07T14:15:45.956Z,0.80
2022-09-07T14:18:15.935Z,0.80
2022-09-07T14:20:54.037Z,0.52
2022-09-07T14:23:28.296Z,1.10
2022-09-07T14:26:18.694Z,0.82
2022-09-07T14:28:49.652Z,1.33
2022-09-07T14:31:20.148Z,0.63
2022-09-07T14:33:59.101Z,1.02
2022-09-07T14:36:47.990Z,2.42
2022-09-07T14:39:18.562Z,1.17
2022-09-07T14:41:46.908Z,1.20
2022-09-07T14:44:39.059Z,1.48
2022-09-07T14:47:31.072Z,1.10
2022-09-07T14:50:06.185Z,0.73
2022-09-07T14:52:43.772Z,1.20
2022-09-07T14:55:39.524Z,1.30
2022-09-07T14:58:16.442Z,1.40
2022-09-07T15:01:37.291Z,0.90
2022-09-07T15:03:39.373Z,1.48
2022-09-07T15:06:09.192Z,0.93
2022-09-07T15:08:39.813Z,1.35
2022-09-07T15:11:39.510Z,1.10
2022-09-07T15:14:18.407Z,0.90
2022-09-07T15:19:50.507Z,1.40
2022-09-07T15:22:19.471Z,3.90
2022-09-07T15:24:48.360Z,1.48
2022-09-07T15:27:28.835Z,0.90
2022-09-07T15:29:56.597Z,2.10
2022-09-07T15:32:23.966Z,1.50
2022-09-07T15:34:51.771Z,4.50
2022-09-07T15:40:25.358Z,2.85
2022-09-07T15:43:01.006Z,1.73
2022-09-07T15:45:30.157Z,1.05
2022-09-07T15:47:58.272Z,3.05
2022-09-07T15:50:25.662Z,1.65
2022-09-07T15:52:53.602Z,3.70
2022-09-07T15:55:21.286Z,1.40
2022-09-07T15:57:52.769Z,1.60
2022-09-07T16:00:25.450Z,1.63
2022-09-07T16:03:09.271Z,1.35
2022-09-07T16:05:41.823Z,1.48
2022-09-07T16:08:25.446Z,1.23
2022-09-07T16:10:54.262Z,1.20
2022-09-07T16:13:24.465Z,1.77
2022-09-07T16:15:52.028Z,1.13
2022-09-07T16:18:20.196Z,1.20
2022-09-07T16:20:52.577Z,1.42
2022-09-07T16:23:21.179Z,1.10
2022-09-07T16:25:59.159Z,1.20
2022-09-07T16:28:28.049Z,1.50
2022-09-07T16:30:56.268Z,1.58
2022-09-07T16:33:31.546Z,1.58
2022-09-07T16:36:09.109Z,2.42
2022-09-07T16:38:44.992Z,2.38
2022-09-07T16:41:27.307Z,1.73
2022-09-07T16:43:56.262Z,2.28
2022-09-07T16:46:28.017Z,2.30
2022-09-07T16:48:56.019Z,3.72
2022-09-07T16:51:25.311Z,2.40
2022-09-07T16:53:56.785Z,2.40
2022-09-07T16:56:27.125Z,3.00
2022-09-07T16:59:01.330Z,3.90
2022-09-07T17:01:32.520Z,6.05
2022-09-07T17:04:03.390Z,5.95
2022-09-07T17:06:33.328Z,6.38
2022-09-07T17:09:01.383Z,6.18
2022-09-07T17:11:34.842Z,5.90
2022-09-07T17:14:05.189Z,12.65
2022-09-07T17:16:40.435Z,13.73
2022-09-07T17:22:00.023Z,10.07
2022-09-07T17:24:27.922Z,8.10
2022-09-07T17:26:55.337Z,10.02
2022-09-07T17:29:22.713Z,10.43
2022-09-07T17:34:37.837Z,8.70
2022-09-07T17:37:05.429Z,9.35
2022-09-07T17:39:33.153Z,6.65
2022-09-07T17:42:01.125Z,6.10
2022-09-07T17:44:33.234Z,4.80
2022-09-07T17:47:03.860Z,4.93
2022-09-07T17:49:31.365Z,3.90
2022-09-07T17:52:00.303Z,5.32
2022-09-07T17:54:28.540Z,5.88
2022-09-07T17:56:57.127Z,5.30
2022-09-07T18:02:14.274Z,6.17
2022-09-07T18:04:41.886Z,6.13
2022-09-07T18:07:09.629Z,7.07
2022-09-07T18:09:37.547Z,5.80
2022-09-07T18:12:05.364Z,6.07
2022-09-07T18:14:32.760Z,4.63
2022-09-07T18:17:02.026Z,4.60
2022-09-07T18:19:29.983Z,4.40
2022-09-07T18:21:57.488Z,5.17
2022-09-07T18:24:25.653Z,6.00
2022-09-07T18:26:54.257Z,6.40
2022-09-07T18:29:34.049Z,7.30
2022-09-07T18:32:08.667Z,8.37
2022-09-07T18:34:40.664Z,8.13
2022-09-07T18:37:09.278Z,9.97
2022-09-07T18:39:37.247Z,14.77
2022-09-07T18:42:05.273Z,14.23
2022-09-07T18:47:27.938Z,10.60
2022-09-07T18:49:57.351Z,15.10
2022-09-07T18:55:14.150Z,17.57
2022-09-07T18:57:42.199Z,17.10
2022-09-07T19:00:11.265Z,18.27
2022-09-07T19:02:39.352Z,16.90
2022-09-07T19:07:55.757Z,16.53
2022-09-07T19:10:23.645Z,16.33
2022-09-07T19:12:51.386Z,15.43
2022-09-07T19:15:20.688Z,16.57
2022-09-07T19:17:48.516Z,13.57
2022-09-07T19:20:16.320Z,15.07
2022-09-07T19:22:44.259Z,15.57
2022-09-07T19:25:12.217Z,15.00
2022-09-07T19:27:40.276Z,13.57
2022-09-07T19:30:08.845Z,15.73
2022-09-07T19:32:36.756Z,13.07
2022-09-07T19:35:04.609Z,13.17
2022-09-07T19:37:33.087Z,12.47
2022-09-07T19:40:01.549Z,12.67
2022-09-07T19:42:29.843Z,11.40
2022-09-07T19:44:57.880Z,12.17
2022-09-07T19:47:25.932Z,12.23
2022-09-07T19:49:53.783Z,10.77
2022-09-07T19:52:21.778Z,13.13
2022-09-07T19:54:49.540Z,12.40
2022-09-07T19:57:17.302Z,11.87
2022-09-07T19:59:47.371Z,12.80
2022-09-07T20:02:14.864Z,13.70
2022-09-07T20:04:42.885Z,13.80
2022-09-07T20:07:11.021Z,13.53
2022-09-07T20:09:39.236Z,11.53
2022-09-07T20:12:08.532Z,11.53
2022-09-07T20:14:37.090Z,12.63
2022-09-07T20:17:05.135Z,10.87
2022-09-07T20:19:33.083Z,11.60
2022-09-07T20:22:00.734Z,10.97
2022-09-07T20:24:29.682Z,10.57
2022-09-07T20:26:57.240Z,10.73
2022-09-07T20:29:28.174Z,8.40
2022-09-07T20:31:58.951Z,8.93
2022-09-07T20:34:28.129Z,11.90
2022-09-07T20:36:57.203Z,10.00
2022-09-07T20:39:25.653Z,11.80
2022-09-07T20:41:54.103Z,9.17
2022-09-07T20:44:21.912Z,9.07
2022-09-07T20:46:49.356Z,8.67
2022-09-07T20:49:17.469Z,8.17
2022-09-07T20:51:44.939Z,8.70
2022-09-07T20:54:13.032Z,7.90
2022-09-07T20:56:41.033Z,7.87
2022-09-07T20:59:08.939Z,6.47
2022-09-07T21:01:36.984Z,6.57
2022-09-07T21:04:06.364Z,6.00
2022-09-07T21:06:34.015Z,7.60
2022-09-07T21:09:02.302Z,6.60
2022-09-07T21:11:35.461Z,7.90
2022-09-07T21:14:06.364Z,7.37
2022-09-07T21:16:35.440Z,6.00
2022-09-07T21:19:06.178Z,7.57
2022-09-07T21:21:39.471Z,6.90
2022-09-07T21:24:17.279Z,7.10
2022-09-07T21:26:45.135Z,7.27
2022-09-07T21:29:19.916Z,7.43
2022-09-07T21:31:47.911Z,7.57
2022-09-07T21:34:17.096Z,8.80
2022-09-07T21:36:44.872Z,8.53
2022-09-07T21:39:14.697Z,8.53
2022-09-07T21:41:43.585Z,9.17
2022-09-07T21:44:15.845Z,13.17
2022-09-07T21:46:44.552Z,12.83
2022-09-07T21:49:12.403Z,16.13
2022-09-07T21:51:40.643Z,17.80
2022-09-07T21:54:08.712Z,12.93
2022-09-07T21:56:36.419Z,9.13
2022-09-07T21:59:05.271Z,9.37
2022-09-07T22:01:33.555Z,10.73
2022-09-07T22:04:02.965Z,9.13
2022-09-07T22:06:32.509Z,8.27
2022-09-07T22:09:01.644Z,8.43
2022-09-07T22:11:30.371Z,10.13
2022-09-07T22:14:03.699Z,9.67
2022-09-07T22:16:33.265Z,10.70
2022-09-07T22:19:01.102Z,10.37
2022-09-07T22:21:30.049Z,11.50
2022-09-07T22:24:03.352Z,10.33
2022-09-07T22:26:35.594Z,10.23
2022-09-07T22:29:03.591Z,11.10
2022-09-07T22:31:33.638Z,10.87
2022-09-07T22:34:03.575Z,9.80
2022-09-07T22:36:40.040Z,11.40
2022-09-07T22:39:10.900Z,10.03
2022-09-07T22:41:39.707Z,10.53
2022-09-07T22:44:08.461Z,10.47
2022-09-07T22:46:38.656Z,10.30
2022-09-07T22:49:07.682Z,10.77
2022-09-07T22:51:35.590Z,11.00
2022-09-07T22:54:03.239Z,11.57
2022-09-07T22:56:32.737Z,12.13
2022-09-07T22:59:04.494Z,13.03
2022-09-07T23:01:33.052Z,11.80
2022-09-07T23:04:01.260Z,10.80
2022-09-07T23:06:32.990Z,11.17
2022-09-07T23:09:04.151Z,10.57
2022-09-07T23:11:33.569Z,10.47
2022-09-07T23:14:03.279Z,11.03
2022-09-07T23:16:31.304Z,9.77
2022-09-07T23:19:00.632Z,10.40
2022-09-07T23:21:29.048Z,9.67
2022-09-07T23:23:59.046Z,9.23
2022-09-07T23:26:29.090Z,8.53
2022-09-07T23:29:02.532Z,10.70
2022-09-07T23:31:31.004Z,10.90
2022-09-07T23:33:59.523Z,11.83
2022-09-07T23:36:27.447Z,10.03
2022-09-07T23:38:56.339Z,9.47
2022-09-07T23:41:25.125Z,10.03
2022-09-07T23:43:53.358Z,8.07
2022-09-07T23:46:21.795Z,10.17
2022-09-07T23:48:50.790Z,9.47
2022-09-07T23:51:23.408Z,8.70
2022-09-07T23:53:52.363Z,8.23
2022-09-07T23:56:20.614Z,8.23
2022-09-07T23:58:48.345Z,8.53
